Time;durP1;ratioP1;P1;durP2;ratioP2;P2;SDS_P1;SDS_P2;PMS_P1;PMS_P2;Temp;Humidity;BMP_temperature;BMP_pressure;BME280_temperature;BME280_humidity;BME280_pressure;Samples;Min_cycle;Max_cycle;Signal;HPM_P1;HPM_P2
2021/11/04 00:00:57;;;;;;;;;14.00;14.00;;;;;11.72;60.29;100241.94;5059364;28;45180;-62
2021/11/04 00:03:23;;;;;;;;;11.50;10.50;;;;;11.70;60.27;100233.13;5059828;28;45290;-61
2021/11/04 00:05:48;;;;;;;;;6.50;5.75;;;;;11.69;60.20;100232.22;5059558;28;45390;-62
2021/11/04 00:08:13;;;;;;;;;11.25;11.25;;;;;11.68;60.15;100228.69;5059775;28;45437;-62
2021/11/04 00:10:39;;;;;;;;;9.75;9.75;;;;;11.64;60.00;100226.22;5059521;28;46079;-62
2021/11/04 00:13:04;;;;;;;;;9.50;7.50;;;;;11.65;60.03;100226.16;5059811;28;45295;-62
2021/11/04 00:15:30;;;;;;;;;10.75;10.75;;;;;11.64;60.33;100226.22;5059413;28;45750;-62
2021/11/04 00:17:58;;;;;;;;;11.50;10.00;;;;;11.66;60.39;100232.34;5059507;28;45403;-62
2021/11/04 00:20:24;;;;;;;;;12.00;12.00;;;;;11.63;60.38;100225.34;5059175;28;45987;-62
2021/11/04 00:22:49;;;;;;;;;10.50;10.00;;;;;11.59;60.21;100215.72;5060333;28;45446;-62
2021/11/04 00:25:18;;;;;;;;;13.00;11.25;;;;;11.57;60.56;100217.59;5062156;28;45427;-62
2021/11/04 00:27:43;;;;;;;;;12.50;12.50;;;;;11.58;60.09;100221.16;5063087;28;45475;-62
2021/11/04 00:30:09;;;;;;;;;11.25;11.00;;;;;11.58;60.02;100222.03;5062704;28;45871;-62
2021/11/04 00:32:35;;;;;;;;;12.50;11.00;;;;;11.56;60.32;100215.00;5062956;28;45472;-62
2021/11/04 00:35:01;;;;;;;;;13.50;10.50;;;;;11.54;60.44;100223.09;5062788;28;45635;-62
2021/11/04 00:37:26;;;;;;;;;12.50;12.00;;;;;11.54;60.21;100217.75;5062918;28;45491;-61
2021/11/04 00:39:52;;;;;;;;;10.50;10.50;;;;;11.51;60.60;100215.22;5062729;28;45421;-62
2021/11/04 00:42:17;;;;;;;;;14.00;11.00;;;;;11.50;60.45;100214.34;5062972;28;45306;-62
2021/11/04 00:44:43;;;;;;;;;15.75;15.25;;;;;11.46;60.62;100212.75;5062844;28;45402;-62
2021/11/04 00:47:08;;;;;;;;;13.50;13.50;;;;;11.49;60.82;100227.78;5062675;28;45436;-61
2021/11/04 00:49:34;;;;;;;;;16.25;16.25;;;;;11.43;60.78;100223.56;5062404;28;45302;-62
2021/11/04 00:51:59;;;;;;;;;11.50;10.50;;;;;11.48;60.77;100232.25;5062473;28;45322;-62
2021/11/04 00:54:25;;;;;;;;;13.25;12.00;;;;;11.48;60.83;100248.28;5062821;28;45401;-61
2021/11/04 00:56:50;;;;;;;;;12.75;11.25;;;;;11.42;60.58;100239.69;5062558;28;45429;-61
2021/11/04 00:59:15;;;;;;;;;14.75;12.75;;;;;11.47;60.79;100249.22;5062191;28;46541;-62
2021/11/04 01:01:41;;;;;;;;;13.00;13.00;;;;;11.49;60.74;100238.47;5062279;28;45317;-61
2021/11/04 01:04:06;;;;;;;;;13.50;11.25;;;;;11.46;61.11;100231.47;5062502;28;45344;-61
2021/11/04 01:06:32;;;;;;;;;16.25;14.25;;;;;11.49;60.77;100241.13;5062190;28;45378;-61
2021/11/04 01:08:57;;;;;;;;;15.00;15.00;;;;;11.47;60.57;100235.00;5062240;28;46191;-62
2021/11/04 01:11:24;;;;;;;;;13.25;12.75;;;;;11.47;61.13;100238.53;5062535;28;45212;-61
2021/11/04 01:13:50;;;;;;;;;14.00;14.00;;;;;11.47;61.07;100232.31;5062512;28;45315;-61
2021/11/04 01:16:16;;;;;;;;;16.25;13.25;;;;;11.50;60.87;100237.53;5062412;28;45445;-62
2021/11/04 01:18:42;;;;;;;;;12.50;12.50;;;;;11.49;60.90;100231.34;5048634;28;45401;-61
2021/11/04 01:21:07;;;;;;;;;14.25;13.25;;;;;11.48;60.98;100226.91;5062172;28;45345;-61
2021/11/04 01:23:32;;;;;;;;;17.00;15.75;;;;;11.48;60.85;100224.25;5062294;28;45386;-62
2021/11/04 01:25:58;;;;;;;;;14.25;14.25;;;;;11.41;60.91;100219.22;5059619;28;45386;-61
2021/11/04 01:28:23;;;;;;;;;16.75;15.25;;;;;11.49;61.01;100233.13;5061991;28;45307;-61
2021/11/04 01:30:48;;;;;;;;;15.00;15.00;;;;;11.49;60.59;100241.13;5061985;28;45508;-61
2021/11/04 01:33:14;;;;;;;;;13.00;13.00;;;;;11.47;60.73;100235.00;5058411;28;45268;-62
2021/11/04 01:35:40;;;;;;;;;20.25;16.75;;;;;11.46;60.44;100236.81;5050893;28;45441;-61
2021/11/04 01:38:07;;;;;;;;;13.25;13.25;;;;;11.46;60.49;100243.94;5061946;28;46072;-62
2021/11/04 01:40:34;;;;;;;;;13.75;13.75;;;;;11.43;60.75;100238.75;5062047;28;45577;-61
2021/11/04 01:43:00;;;;;;;;;15.25;15.25;;;;;11.41;60.70;100245.94;5061885;28;45332;-61
2021/11/04 01:45:26;;;;;;;;;21.25;15.75;;;;;11.40;60.71;100242.41;5061810;28;45390;-62
2021/11/04 01:47:53;;;;;;;;;16.75;16.00;;;;;11.40;60.80;100245.09;5059255;28;45456;-61
2021/11/04 01:50:22;;;;;;;;;20.00;17.00;;;;;11.39;60.78;100242.47;5061527;28;45555;-61
2021/11/04 01:52:49;;;;;;;;;19.25;16.50;;;;;11.38;60.84;100249.63;5061339;28;45287;-62
2021/11/04 01:55:16;;;;;;;;;19.00;17.00;;;;;11.36;60.63;100246.16;5061764;28;45454;-62
2021/11/04 01:57:42;;;;;;;;;16.00;14.50;;;;;11.34;60.98;100248.00;5061378;28;45663;-61
2021/11/04 02:00:08;;;;;;;;;14.75;13.75;;;;;11.33;60.55;100246.31;5061415;28;45349;-61
2021/11/04 02:02:40;;;;;;;;;15.50;15.50;;;;;11.31;60.92;100235.69;5061546;28;45370;-61
2021/11/04 02:05:07;;;;;;;;;16.00;14.50;;;;;11.30;60.95;100228.59;5061394;28;45389;-62
2021/11/04 02:07:44;;;;;;;;;14.50;14.50;;;;;11.29;60.72;100236.66;5061514;28;46110;-61
2021/11/04 02:10:39;;;;;;;;;18.50;14.75;;;;;11.26;60.76;100239.47;5061395;28;45317;-61
2021/11/04 02:13:30;;;;;;;;;13.50;11.50;;;;;11.23;60.75;100232.47;5061695;28;45322;-61
2021/11/04 02:15:59;;;;;;;;;20.25;17.75;;;;;11.23;61.10;100240.47;5050816;28;45350;-62
2021/11/04 02:18:28;;;;;;;;;17.50;17.50;;;;;11.22;60.93;100240.53;5061054;28;47305;-61
2021/11/04 02:21:08;;;;;;;;;12.50;12.00;;;;;11.19;60.79;100243.34;5061187;28;45592;-61
2021/11/04 02:23:58;;;;;;;;;18.00;14.50;;;;;11.19;60.93;100251.34;5061306;28;45485;-61
2021/11/04 02:26:24;;;;;;;;;17.75;16.00;;;;;11.15;60.86;100249.75;5060013;28;45314;-61
2021/11/04 02:28:52;;;;;;;;;18.50;17.25;;;;;11.16;60.89;100257.72;5061152;28;46559;-61
2021/11/04 02:31:19;;;;;;;;;18.75;18.00;;;;;11.17;60.98;100253.22;5060777;28;45641;-61
2021/11/04 02:33:45;;;;;;;;;19.75;17.75;;;;;11.16;61.09;100263.06;5061396;28;45434;-61
2021/11/04 02:36:11;;;;;;;;;16.25;14.75;;;;;11.11;61.15;100249.03;5059875;28;45363;-61
2021/11/04 02:38:38;;;;;;;;;17.75;13.75;;;;;11.13;61.07;100257.84;5048615;28;46171;-62
2021/11/04 02:41:04;;;;;;;;;20.50;15.50;;;;;11.12;61.39;100254.28;5060939;28;45251;-61
2021/11/04 02:43:33;;;;;;;;;22.00;20.25;;;;;11.09;60.91;100254.44;5061205;28;45223;-62
2021/11/04 02:46:00;;;;;;;;;17.25;14.00;;;;;11.07;61.47;100253.59;5057842;28;45539;-61
2021/11/04 02:48:26;;;;;;;;;17.75;15.25;;;;;11.05;61.15;100252.81;5060491;28;45268;-61
2021/11/04 02:50:52;;;;;;;;;17.75;14.75;;;;;11.07;61.19;100269.63;5060411;28;45655;-61
2021/11/04 02:53:23;;;;;;;;;18.00;15.50;;;;;11.07;60.94;100266.97;5060702;28;45148;-61
2021/11/04 02:55:50;;;;;;;;;17.50;17.00;;;;;11.09;60.72;100280.25;5060811;28;45338;-61
2021/11/04 02:58:16;;;;;;;;;16.00;16.00;;;;;11.05;60.93;100266.16;5060749;28;46158;-61
2021/11/04 03:00:46;;;;;;;;;17.50;15.00;;;;;11.07;61.32;100261.63;5060443;28;45212;-61
2021/11/04 03:03:11;;;;;;;;;19.00;17.25;;;;;11.09;61.21;100280.25;5060885;28;45388;-61
2021/11/04 03:05:37;;;;;;;;;14.75;14.00;;;;;11.09;60.80;100273.13;5060346;28;45546;-61
2021/11/04 03:08:02;;;;;;;;;17.50;17.50;;;;;11.09;61.27;100281.16;5060547;28;46083;-61
2021/11/04 03:10:28;;;;;;;;;18.75;17.00;;;;;11.06;61.16;100281.28;5059345;28;45315;-61
2021/11/04 03:12:53;;;;;;;;;14.75;14.75;;;;;11.07;61.33;100277.66;5060628;28;45344;-62
2021/11/04 03:15:21;;;;;;;;;16.50;14.75;;;;;11.07;61.28;100279.47;5060397;28;45437;-61
2021/11/04 03:17:49;;;;;;;;;17.75;15.50;;;;;11.06;61.05;100272.38;5059987;28;45254;-61
2021/11/04 03:20:20;;;;;;;;;18.75;17.50;;;;;11.06;60.88;100278.59;5060167;28;45230;-61
2021/11/04 03:22:47;;;;;;;;;21.00;19.75;;;;;11.02;61.13;100271.63;5060537;28;45315;-62
2021/11/04 03:25:15;;;;;;;;;23.25;18.00;;;;;11.03;61.45;100280.53;5059204;28;45490;-62
2021/11/04 03:27:43;;;;;;;;;19.50;18.25;;;;;11.05;61.03;100284.00;5060073;28;45401;-61
2021/11/04 03:30:17;;;;;;;;;17.25;15.75;;;;;11.06;61.39;100289.28;5060127;28;45682;-61
2021/11/04 03:32:43;;;;;;;;;19.00;18.75;;;;;11.05;61.58;100286.66;5060364;28;45269;-62
2021/11/04 03:35:10;;;;;;;;;18.75;17.25;;;;;11.05;61.11;100282.19;5059879;28;45759;-61
2021/11/04 03:37:39;;;;;;;;;21.25;17.75;;;;;11.01;61.41;100277.03;5060187;28;45257;-62
2021/11/04 03:40:05;;;;;;;;;20.50;17.75;;;;;11.05;61.55;100290.19;5060117;28;45219;-62
2021/11/04 03:42:31;;;;;;;;;19.00;18.00;;;;;11.06;60.97;100291.94;5056863;28;45426;-61
2021/11/04 03:44:59;;;;;;;;;16.00;15.75;;;;;11.07;61.16;100282.97;5060184;28;45362;-62
2021/11/04 03:47:29;;;;;;;;;20.75;16.00;;;;;11.07;61.44;100292.81;5059448;28;45547;-62
2021/11/04 03:49:56;;;;;;;;;16.25;16.25;;;;;11.07;61.67;100288.31;5059854;28;45697;-61
2021/11/04 03:52:22;;;;;;;;;16.75;16.75;;;;;11.10;61.47;100298.03;5060177;28;45314;-62
2021/11/04 03:54:48;;;;;;;;;22.50;19.00;;;;;11.11;61.26;100302.44;5060075;28;45523;-62
2021/11/04 03:57:14;;;;;;;;;22.00;17.25;;;;;11.09;61.17;100305.19;5059118;28;45498;-61
2021/11/04 03:59:40;;;;;;;;;18.50;17.75;;;;;11.09;61.43;100310.53;5059682;28;45324;-62
2021/11/04 04:02:08;;;;;;;;;19.50;18.00;;;;;11.08;61.15;100300.75;5059663;28;45469;-62
2021/11/04 04:04:34;;;;;;;;;20.00;19.75;;;;;11.09;61.21;100307.84;5059955;28;45548;-62
2021/11/04 04:06:59;;;;;;;;;17.75;16.00;;;;;11.08;61.86;100300.75;5059337;28;45252;-61
2021/11/04 04:09:25;;;;;;;;;17.75;17.75;;;;;11.10;61.50;100303.38;5059362;28;45151;-62
2021/11/04 04:11:52;;;;;;;;;19.75;17.75;;;;;11.10;61.87;100303.38;5059739;28;45302;-62
2021/11/04 04:14:17;;;;;;;;;20.50;18.75;;;;;11.09;61.83;100301.63;5059705;28;45394;-62
2021/11/04 04:16:43;;;;;;;;;19.75;18.50;;;;;11.08;61.73;100303.44;5059212;28;46438;-61
2021/11/04 04:19:09;;;;;;;;;21.50;20.25;;;;;11.10;61.91;100304.22;5059600;28;45317;-62
2021/11/04 04:21:34;;;;;;;;;18.25;17.50;;;;;11.12;61.59;100306.84;5059569;28;45460;-62
2021/11/04 04:24:00;;;;;;;;;18.25;17.00;;;;;11.12;61.77;100304.16;5059658;28;46176;-62
2021/11/04 04:26:25;;;;;;;;;16.50;16.50;;;;;11.11;61.33;100302.44;5058217;28;45247;-62
2021/11/04 04:28:51;;;;;;;;;18.00;17.75;;;;;11.17;62.15;100312.84;5059566;28;45229;-62
2021/11/04 04:31:16;;;;;;;;;17.50;15.00;;;;;11.16;61.73;100303.13;5059260;28;45219;-62
2021/11/04 04:33:42;;;;;;;;;17.00;17.00;;;;;11.15;61.83;100316.53;5059524;28;45441;-62
2021/11/04 04:36:07;;;;;;;;;15.75;14.50;;;;;11.16;62.05;100315.59;5058941;28;46300;-62
2021/11/04 04:38:34;;;;;;;;;18.00;17.75;;;;;11.16;62.23;100320.94;5059318;28;45299;-62
2021/11/04 04:40:59;;;;;;;;;17.75;17.00;;;;;11.15;62.10;100321.88;5059531;28;45342;-62
2021/11/04 04:43:24;;;;;;;;;18.75;18.75;;;;;11.14;62.53;100331.69;5059351;28;45374;-62
2021/11/04 04:45:50;;;;;;;;;19.25;14.50;;;;;11.12;62.27;100329.06;5058926;28;46256;-62
2021/11/04 04:48:15;;;;;;;;;20.00;18.00;;;;;11.16;62.60;100336.97;5058736;28;45430;-62
2021/11/04 04:50:41;;;;;;;;;12.00;12.00;;;;;11.19;62.69;100345.72;5060888;28;45412;-62
2021/11/04 04:53:08;;;;;;;;;20.00;18.75;;;;;11.20;62.90;100352.81;5051446;28;45358;-61
2021/11/04 04:55:34;;;;;;;;;20.50;18.25;;;;;11.21;62.49;100354.56;5053618;28;45472;-62
2021/11/04 04:57:59;;;;;;;;;14.50;14.50;;;;;11.23;62.91;100351.84;5059219;28;45859;-62
2021/11/04 05:00:24;;;;;;;;;18.25;18.00;;;;;11.20;62.69;100341.25;5058974;28;45401;-62
2021/11/04 05:02:50;;;;;;;;;19.50;15.75;;;;;11.24;63.64;100345.53;5058936;28;45441;-62
2021/11/04 05:05:15;;;;;;;;;16.50;16.50;;;;;11.23;63.42;100342.00;5058688;28;46409;-62
2021/11/04 05:07:41;;;;;;;;;15.25;14.75;;;;;11.25;63.83;100340.13;5058547;28;45765;-64
2021/11/04 05:10:08;;;;;;;;;17.75;16.25;;;;;11.26;64.12;100346.34;5061397;28;45300;-63
2021/11/04 05:12:35;;;;;;;;;16.25;14.50;;;;;11.26;63.30;100344.56;5062605;28;45429;-64
2021/11/04 05:15:00;;;;;;;;;15.25;15.00;;;;;11.27;63.64;100343.59;5062103;28;45541;-62
2021/11/04 05:17:26;;;;;;;;;21.00;16.50;;;;;11.28;64.08;100342.69;5061998;28;45263;-62
2021/11/04 05:19:51;;;;;;;;;14.75;14.75;;;;;11.24;63.94;100341.09;5062240;28;45721;-62
2021/11/04 05:22:17;;;;;;;;;16.75;13.50;;;;;11.29;63.72;100340.88;5062312;28;45464;-62
2021/11/04 05:24:43;;;;;;;;;17.50;13.25;;;;;11.27;64.45;100343.59;5062020;28;46281;-62
2021/11/04 05:27:08;;;;;;;;;20.75;18.50;;;;;11.27;63.66;100348.09;5060943;28;45382;-62
2021/11/04 05:29:34;;;;;;;;;14.75;14.50;;;;;11.27;64.30;100351.63;5062413;28;45318;-62
2021/11/04 05:32:01;;;;;;;;;16.25;15.25;;;;;11.25;64.24;100349.97;5048902;28;45323;-62
2021/11/04 05:34:26;;;;;;;;;20.00;19.00;;;;;11.26;64.47;100355.25;5061888;28;46227;-62
2021/11/04 05:36:52;;;;;;;;;22.00;19.25;;;;;11.27;64.32;100361.44;5062084;28;45144;-62
2021/11/04 05:39:17;;;;;;;;;15.75;15.00;;;;;11.23;64.18;100362.53;5061799;28;45191;-62
2021/11/04 05:41:42;;;;;;;;;17.75;17.00;;;;;11.23;64.09;100355.38;5061964;28;45480;-62
2021/11/04 05:44:08;;;;;;;;;17.25;14.00;;;;;11.22;64.35;100364.28;5061813;28;45311;-62
2021/11/04 05:46:34;;;;;;;;;17.25;16.00;;;;;11.24;64.30;100358.91;5061546;28;45411;-62
2021/11/04 05:49:00;;;;;;;;;15.50;13.25;;;;;11.25;64.32;100366.00;5061866;28;45587;-62
2021/11/04 05:51:25;;;;;;;;;14.25;14.25;;;;;11.20;64.39;100358.16;5061786;28;45717;-62
2021/11/04 05:53:50;;;;;;;;;17.25;17.00;;;;;11.19;64.31;100363.56;5061829;28;45426;-61
2021/11/04 05:56:16;;;;;;;;;16.25;14.75;;;;;11.19;64.53;100359.06;5061757;28;45356;-62
2021/11/04 05:58:41;;;;;;;;;13.75;13.75;;;;;11.19;64.95;100360.88;5061860;28;45365;-62
2021/11/04 06:01:06;;;;;;;;;15.00;13.00;;;;;11.09;64.60;100347.94;5061207;28;45473;-62
2021/11/04 06:03:32;;;;;;;;;16.75;16.75;;;;;11.17;65.05;100365.44;5061282;28;45267;-62
2021/11/04 06:05:57;;;;;;;;;16.25;14.50;;;;;11.13;64.94;100376.22;5061491;28;45406;-62
2021/11/04 06:08:23;;;;;;;;;16.75;15.75;;;;;11.13;65.16;100378.91;5061128;28;45463;-63
2021/11/04 06:10:48;;;;;;;;;15.50;13.00;;;;;11.12;64.99;100374.47;5060664;28;45290;-62
2021/11/04 06:13:14;;;;;;;;;14.50;12.75;;;;;11.12;64.96;100371.81;5059946;28;45390;-61
2021/11/04 06:15:39;;;;;;;;;15.50;12.50;;;;;11.12;65.56;100374.47;5059675;28;45572;-62
2021/11/04 06:18:04;;;;;;;;;14.00;14.00;;;;;11.14;65.27;100379.75;5060806;28;45322;-62
2021/11/04 06:20:30;;;;;;;;;13.00;13.00;;;;;11.17;65.64;100384.13;5060403;28;45237;-63
2021/11/04 06:22:56;;;;;;;;;13.75;11.00;;;;;11.17;65.31;100390.34;5060527;28;45165;-62
2021/11/04 06:25:22;;;;;;;;;11.50;11.00;;;;;11.12;65.64;100387.84;5056835;28;45202;-62
2021/11/04 06:27:48;;;;;;;;;13.25;11.00;;;;;11.13;65.42;100392.25;5073453;27;45427;-62
2021/11/04 06:30:13;;;;;;;;;17.75;13.25;;;;;11.12;66.03;100389.66;5051941;28;45544;-62
2021/11/04 06:32:39;;;;;;;;;10.75;10.75;;;;;11.13;65.82;100389.59;5076428;28;47476;-62
2021/11/04 06:35:08;;;;;;;;;11.50;11.50;;;;;11.16;66.14;100399.31;5058874;28;45325;-62
2021/11/04 06:37:36;;;;;;;;;12.75;11.00;;;;;11.20;66.01;100400.03;5059639;28;45387;-62
2021/11/04 06:40:02;;;;;;;;;13.75;12.25;;;;;11.19;65.94;100399.16;5059252;28;45155;-61
2021/11/04 06:42:27;;;;;;;;;12.75;11.50;;;;;11.20;66.14;100406.25;5058835;28;47069;-64
2021/11/04 06:44:53;;;;;;;;;14.25;12.00;;;;;11.20;65.78;100402.72;5060142;28;45440;-64
2021/11/04 06:47:45;;;;;;;;;14.00;11.00;;;;;11.19;65.76;100400.97;5049847;28;45208;-66
2021/11/04 06:50:11;;;;;;;;;14.50;11.50;;;;;11.25;66.07;100411.41;5059857;28;45351;-64
2021/11/04 06:52:43;;;;;;;;;12.75;12.00;;;;;11.24;66.00;100415.91;5058424;28;46545;-64
2021/11/04 06:55:10;;;;;;;;;12.00;12.00;;;;;11.25;66.00;100416.75;5059775;28;45829;-64
2021/11/04 06:57:41;;;;;;;;;11.25;9.25;;;;;11.29;65.96;100415.69;5060155;28;45528;-65
2021/11/04 07:00:09;;;;;;;;;11.00;11.00;;;;;11.32;66.26;100426.25;5059403;28;45434;-64
2021/11/04 07:02:40;;;;;;;;;14.00;12.00;;;;;11.32;66.20;100418.22;5060214;28;46334;-65
2021/11/04 07:05:07;;;;;;;;;10.00;10.00;;;;;11.35;65.97;100428.81;5059568;28;45731;-66
2021/11/04 07:07:53;;;;;;;;;10.50;9.50;;;;;11.37;66.23;100426.06;5060454;28;45292;-67
2021/11/04 07:10:22;;;;;;;;;12.00;10.25;;;;;11.40;66.27;100436.66;5059875;28;45594;-66
2021/11/04 07:12:49;;;;;;;;;12.50;11.25;;;;;11.40;66.55;100432.16;5060677;28;45432;-65
2021/11/04 07:15:19;;;;;;;;;10.00;9.00;;;;;11.41;66.19;100441.03;5059363;28;45255;-65
2021/11/04 07:17:46;;;;;;;;;9.50;8.00;;;;;11.31;66.52;100427.19;5056872;28;45512;-67
2021/11/04 07:20:13;;;;;;;;;12.00;12.00;;;;;11.41;66.53;100441.03;5060089;28;45152;-66
2021/11/04 07:23:01;;;;;;;;;11.50;10.50;;;;;11.37;66.44;100450.97;5060123;28;46022;-66
2021/11/04 07:25:29;;;;;;;;;10.00;10.00;;;;;11.39;66.94;100457.13;5059858;28;45678;-66
2021/11/04 07:28:14;;;;;;;;;9.50;8.75;;;;;11.42;66.75;100461.50;5059104;28;45311;-66
2021/11/04 07:30:41;;;;;;;;;9.75;8.50;;;;;11.45;66.66;100467.59;5059484;28;45512;-66
2021/11/04 07:33:08;;;;;;;;;11.25;9.50;;;;;11.43;66.64;100463.25;5058887;28;45255;-66
2021/11/04 07:35:41;;;;;;;;;13.25;9.00;;;;;11.44;66.76;100465.88;5057395;28;46086;-68
2021/11/04 07:38:12;;;;;;;;;10.00;9.00;;;;;11.42;66.89;100465.03;5060175;28;45275;-67
2021/11/04 07:40:37;;;;;;;;;9.75;7.25;;;;;11.46;66.55;100473.78;5058677;28;45463;-67
2021/11/04 07:43:03;;;;;;;;;7.75;7.75;;;;;11.48;66.82;100487.97;5058107;28;47525;-62
2021/11/04 07:45:31;;;;;;;;;12.00;11.00;;;;;11.52;67.13;100494.94;5055311;28;45534;-62
2021/11/04 07:47:56;;;;;;;;;9.50;8.75;;;;;11.54;67.18;100494.88;5049391;28;45498;-62
2021/11/04 07:50:25;;;;;;;;;11.75;10.75;;;;;11.57;66.73;100497.44;5059380;28;45532;-62
2021/11/04 07:52:51;;;;;;;;;7.25;7.00;;;;;11.58;66.71;100502.72;5059808;28;47060;-62
2021/11/04 07:55:18;;;;;;;;;10.75;10.25;;;;;11.58;66.62;100502.72;5059713;28;45517;-62
2021/11/04 07:57:45;;;;;;;;;8.00;7.75;;;;;11.55;66.70;100497.50;5060009;28;45361;-62
2021/11/04 08:00:13;;;;;;;;;8.25;6.50;;;;;11.60;66.69;100505.34;5055556;28;45481;-62
2021/11/04 08:02:40;;;;;;;;;8.50;6.75;;;;;11.60;66.88;100521.38;5056758;28;46945;-62
2021/11/04 08:05:07;;;;;;;;;9.25;9.25;;;;;11.61;66.91;100517.75;5059177;28;45634;-63
2021/11/04 08:07:35;;;;;;;;;8.00;8.00;;;;;11.61;66.41;100513.28;5055027;28;46222;-62
2021/11/04 08:10:02;;;;;;;;;10.75;9.25;;;;;11.61;66.96;100513.28;5057353;28;45534;-62
2021/11/04 08:12:28;;;;;;;;;8.00;7.50;;;;;11.66;66.73;100521.09;5058734;28;47353;-62
2021/11/04 08:14:53;;;;;;;;;9.00;6.00;;;;;11.64;67.14;100515.84;5059221;28;45240;-62
2021/11/04 08:17:19;;;;;;;;;6.25;6.25;;;;;11.67;66.90;100529.06;5058647;28;45382;-62
2021/11/04 08:19:44;;;;;;;;;5.50;5.50;;;;;11.66;66.83;100524.66;5059288;28;45234;-62
2021/11/04 08:22:10;;;;;;;;;7.25;7.25;;;;;11.68;67.00;100529.97;5059273;28;46163;-62
2021/11/04 08:24:35;;;;;;;;;10.25;6.75;;;;;11.70;66.56;100538.78;5059388;28;45247;-62
2021/11/04 08:27:00;;;;;;;;;10.75;9.00;;;;;11.72;66.81;100528.88;5058862;28;45600;-62
2021/11/04 08:29:26;;;;;;;;;6.00;6.00;;;;;11.73;67.07;100544.00;5058900;28;45531;-62
2021/11/04 08:31:51;;;;;;;;;9.75;8.75;;;;;11.73;66.96;100538.66;5059047;28;46023;-62
2021/11/04 08:34:16;;;;;;;;;8.75;7.00;;;;;11.71;66.95;100545.00;5059366;28;45267;-63
2021/11/04 08:36:43;;;;;;;;;7.25;6.75;;;;;11.76;66.46;100551.03;5058935;28;45476;-63
2021/11/04 08:39:09;;;;;;;;;3.50;3.25;;;;;11.78;66.60;100557.19;5059185;28;45530;-63
2021/11/04 08:41:34;;;;;;;;;6.50;6.50;;;;;11.77;66.54;100550.09;5058841;28;46939;-63
2021/11/04 08:44:00;;;;;;;;;7.25;6.75;;;;;11.79;66.60;100557.09;5060270;28;45337;-63
2021/11/04 08:46:26;;;;;;;;;5.50;5.25;;;;;11.82;66.68;100559.66;5062316;28;45482;-63
2021/11/04 08:48:51;;;;;;;;;6.00;5.00;;;;;11.81;66.77;100559.72;5062037;28;45564;-63
2021/11/04 08:51:17;;;;;;;;;6.75;5.75;;;;;11.79;66.69;100558.94;5061874;28;45318;-63
2021/11/04 08:53:42;;;;;;;;;7.50;7.50;;;;;11.82;66.20;100565.00;5071371;28;45399;-63
2021/11/04 08:56:08;;;;;;;;;5.50;5.50;;;;;11.82;66.65;100572.19;5062444;28;45509;-63
2021/11/04 08:58:33;;;;;;;;;6.00;5.00;;;;;11.81;66.52;100562.41;5062238;28;45184;-63
2021/11/04 09:00:59;;;;;;;;;9.25;5.00;;;;;11.85;66.33;100570.25;5056010;28;46283;-63
2021/11/04 09:03:25;;;;;;;;;6.00;5.00;;;;;11.85;66.11;100569.38;5062512;28;45266;-63
2021/11/04 09:05:50;;;;;;;;;4.00;3.50;;;;;11.91;66.23;100573.59;5060695;28;45515;-63
2021/11/04 09:08:16;;;;;;;;;9.25;7.00;;;;;11.89;66.24;100564.78;5062081;28;45357;-62
2021/11/04 09:10:41;;;;;;;;;6.00;6.00;;;;;11.95;66.17;100577.94;5062039;28;45521;-63
2021/11/04 09:13:10;;;;;;;;;7.50;5.00;;;;;11.99;66.00;100584.91;5062103;28;45394;-62
2021/11/04 09:15:36;;;;;;;;;8.25;4.25;;;;;11.98;66.36;100591.19;5062327;28;45376;-63
2021/11/04 09:18:02;;;;;;;;;5.00;5.00;;;;;11.97;66.38;100592.97;5061885;28;45672;-62
2021/11/04 09:20:28;;;;;;;;;5.00;3.00;;;;;11.96;66.43;100591.25;5061693;28;45758;-63
2021/11/04 09:22:53;;;;;;;;;4.25;4.00;;;;;11.95;66.42;100594.84;5060522;28;45449;-62
2021/11/04 09:25:21;;;;;;;;;4.75;4.50;;;;;11.97;65.88;100598.31;5061687;28;45477;-62
2021/11/04 09:27:48;;;;;;;;;4.50;4.50;;;;;12.00;66.35;100598.22;5061986;28;45455;-62
2021/11/04 09:30:15;;;;;;;;;4.50;4.50;;;;;12.03;65.71;100599.91;5061653;28;46489;-63
2021/11/04 09:32:40;;;;;;;;;5.75;5.75;;;;;12.05;65.87;100603.38;5062046;28;45321;-63
2021/11/04 09:35:07;;;;;;;;;5.00;5.00;;;;;12.07;65.82;100609.53;5061626;28;45409;-63
2021/11/04 09:37:32;;;;;;;;;6.00;5.00;;;;;12.07;66.36;100600.66;5061737;28;45211;-63
2021/11/04 09:39:58;;;;;;;;;5.00;5.00;;;;;12.11;66.52;100612.94;5061698;28;46192;-63
2021/11/04 09:42:25;;;;;;;;;5.25;3.00;;;;;12.11;65.62;100599.56;5060192;28;45373;-63
2021/11/04 09:44:52;;;;;;;;;5.75;5.00;;;;;12.10;66.06;100603.19;5061604;28;45157;-62
2021/11/04 09:47:25;;;;;;;;;4.50;3.50;;;;;12.13;66.23;100603.94;5061356;28;45548;-63
2021/11/04 09:49:52;;;;;;;;;4.50;3.50;;;;;12.15;66.42;100618.13;5061183;28;46294;-62
2021/11/04 09:52:32;;;;;;;;;3.00;3.00;;;;;12.13;65.89;100614.66;5061603;28;45560;-62
2021/11/04 09:54:58;;;;;;;;;4.50;4.50;;;;;12.14;66.01;100618.19;5061112;28;45227;-62
2021/11/04 09:57:25;;;;;;;;;6.75;4.00;;;;;12.17;65.75;100618.06;5060649;28;45232;-62
2021/11/04 09:59:53;;;;;;;;;4.25;4.25;;;;;12.18;65.66;100617.13;5043761;28;45368;-63
2021/11/04 10:02:27;;;;;;;;;4.00;3.75;;;;;12.22;65.48;100624.09;5058483;28;45259;-63
2021/11/04 10:05:01;;;;;;;;;3.00;3.00;;;;;12.20;65.83;100624.16;5052753;28;45371;-63
2021/11/04 10:07:26;;;;;;;;;3.25;2.25;;;;;12.19;65.87;100624.22;5059034;28;45482;-63
2021/11/04 10:10:02;;;;;;;;;8.00;4.00;;;;;12.15;65.30;100620.78;5060509;28;47349;-63
2021/11/04 10:12:28;;;;;;;;;3.00;3.00;;;;;12.25;65.26;100636.50;5059755;28;45532;-63
2021/11/04 10:14:55;;;;;;;;;2.50;2.50;;;;;12.26;65.32;100643.56;5060383;28;45379;-63
2021/11/04 10:17:26;;;;;;;;;2.50;2.50;;;;;12.28;65.23;100641.69;5058915;28;45416;-63
2021/11/04 10:19:52;;;;;;;;;3.50;3.00;;;;;12.29;65.40;100640.78;5075128;28;46397;-62
2021/11/04 10:22:25;;;;;;;;;6.50;3.50;;;;;12.30;65.37;100639.84;5060812;28;46450;-62
2021/11/04 10:24:51;;;;;;;;;4.00;3.00;;;;;12.32;64.91;100646.00;5059868;28;45511;-63
2021/11/04 10:27:34;;;;;;;;;3.00;3.00;;;;;12.33;65.38;100639.69;5056251;28;45410;-63
2021/11/04 10:30:04;;;;;;;;;2.00;2.00;;;;;12.33;64.72;100639.69;5058940;28;46350;-63
2021/11/04 10:32:34;;;;;;;;;2.50;2.50;;;;;12.35;65.00;100652.09;5060467;28;45515;-63
2021/11/04 10:35:10;;;;;;;;;2.00;2.00;;;;;12.36;64.60;100656.53;5044979;28;45451;-62
2021/11/04 10:37:50;;;;;;;;;2.00;2.00;;;;;12.36;64.79;100650.28;5042473;28;45708;-62
2021/11/04 10:40:19;;;;;;;;;3.25;2.75;;;;;12.34;65.06;100642.31;5041910;28;46420;-62
2021/11/04 10:42:56;;;;;;;;;3.00;2.00;;;;;12.36;65.02;100651.19;5041464;28;45710;-62
2021/11/04 10:45:26;;;;;;;;;5.75;4.25;;;;;12.35;64.51;100649.41;5042675;28;45572;-62
2021/11/04 10:48:23;;;;;;;;;4.50;4.00;;;;;12.39;64.89;100659.03;5042055;28;46749;-61
2021/11/04 10:50:49;;;;;;;;;2.00;2.00;;;;;12.40;64.51;100659.94;5053789;28;45700;-62
2021/11/04 10:53:22;;;;;;;;;5.50;5.50;;;;;12.40;64.06;100658.13;5048316;28;45391;-61
2021/11/04 10:56:07;;;;;;;;;3.50;3.25;;;;;12.44;64.25;100660.69;5041327;28;45891;-61
2021/11/04 10:58:34;;;;;;;;;3.50;2.75;;;;;12.46;64.39;100658.81;5041737;28;45720;-61
2021/11/04 11:01:00;;;;;;;;;2.00;2.00;;;;;12.47;64.56;100652.53;5040655;28;46125;-61
2021/11/04 11:03:30;;;;;;;;;4.25;3.00;;;;;12.52;64.45;100662.09;5042067;28;47148;-61
2021/11/04 11:06:06;;;;;;;;;2.75;2.75;;;;;12.52;64.01;100662.09;5041099;28;45607;-61
2021/11/04 11:08:32;;;;;;;;;3.50;2.25;;;;;12.56;64.19;100663.72;5046911;28;45764;-61
2021/11/04 11:10:57;;;;;;;;;2.00;2.00;;;;;12.54;63.57;100659.34;5051525;28;45815;-61
2021/11/04 11:13:23;;;;;;;;;1.00;1.00;;;;;12.58;63.76;100661.84;5056533;28;45702;-61
2021/11/04 11:15:55;;;;;;;;;3.00;3.00;;;;;12.60;63.78;100676.03;5045907;28;45706;-61